sensor_id;sensor_type;location;lat;lon;timestamp;P1;durP1;ratioP1;P2;durP2;ratioP2
1296;SDS011;641;48.492;9.184;2023-11-21T00:00:09;8.30;;;1.30;;
1296;SDS011;641;48.492;9.184;2023-11-21T00:02:37;7.13;;;1.47;;
1296;SDS011;641;48.492;9.184;2023-11-21T00:05:05;11.53;;;2.30;;
1296;SDS011;641;48.492;9.184;2023-11-21T00:07:33;6.93;;;1.20;;
1296;SDS011;641;48.492;9.184;2023-11-21T00:09:58;6.80;;;1.03;;
1296;SDS011;641;48.492;9.184;2023-11-21T00:12:24;5.70;;;0.97;;
1296;SDS011;641;48.492;9.184;2023-11-21T00:14:49;6.70;;;0.90;;
1296;SDS011;641;48.492;9.184;2023-11-21T00:17:15;8.23;;;1.20;;
1296;SDS011;641;48.492;9.184;2023-11-21T00:19:41;6.93;;;0.97;;
1296;SDS011;641;48.492;9.184;2023-11-21T00:22:07;9.60;;;1.20;;
1296;SDS011;641;48.492;9.184;2023-11-21T00:24:34;6.40;;;1.27;;
1296;SDS011;641;48.492;9.184;2023-11-21T00:27:00;7.40;;;1.20;;
1296;SDS011;641;48.492;9.184;2023-11-21T00:29:25;8.33;;;1.00;;
1296;SDS011;641;48.492;9.184;2023-11-21T00:31:51;6.07;;;0.80;;
1296;SDS011;641;48.492;9.184;2023-11-21T00:34:16;6.20;;;0.90;;
1296;SDS011;641;48.492;9.184;2023-11-21T00:36:42;7.00;;;1.00;;
1296;SDS011;641;48.492;9.184;2023-11-21T00:39:08;8.10;;;0.80;;
1296;SDS011;641;48.492;9.184;2023-11-21T00:41:33;5.63;;;0.80;;
1296;SDS011;641;48.492;9.184;2023-11-21T00:43:59;5.17;;;0.60;;
1296;SDS011;641;48.492;9.184;2023-11-21T00:46:25;5.50;;;0.70;;
1296;SDS011;641;48.492;9.184;2023-11-21T00:48:54;7.07;;;0.97;;
1296;SDS011;641;48.492;9.184;2023-11-21T00:51:20;6.90;;;0.80;;
1296;SDS011;641;48.492;9.184;2023-11-21T00:53:47;7.97;;;0.90;;
1296;SDS011;641;48.492;9.184;2023-11-21T00:56:13;5.63;;;0.80;;
1296;SDS011;641;48.492;9.184;2023-11-21T00:58:39;9.60;;;1.30;;
1296;SDS011;641;48.492;9.184;2023-11-21T01:01:11;6.47;;;0.90;;
1296;SDS011;641;48.492;9.184;2023-11-21T01:03:36;9.87;;;0.77;;
1296;SDS011;641;48.492;9.184;2023-11-21T01:06:02;5.90;;;0.80;;
1296;SDS011;641;48.492;9.184;2023-11-21T01:08:29;6.10;;;0.70;;
1296;SDS011;641;48.492;9.184;2023-11-21T01:10:56;5.70;;;0.80;;
1296;SDS011;641;48.492;9.184;2023-11-21T01:13:21;6.40;;;0.70;;
1296;SDS011;641;48.492;9.184;2023-11-21T01:15:47;9.70;;;0.73;;
1296;SDS011;641;48.492;9.184;2023-11-21T01:18:12;9.50;;;1.20;;
1296;SDS011;641;48.492;9.184;2023-11-21T01:20:38;8.10;;;1.23;;
1296;SDS011;641;48.492;9.184;2023-11-21T01:23:05;6.10;;;0.70;;
1296;SDS011;641;48.492;9.184;2023-11-21T01:25:30;7.50;;;0.90;;
1296;SDS011;641;48.492;9.184;2023-11-21T01:27:56;5.20;;;0.60;;
1296;SDS011;641;48.492;9.184;2023-11-21T01:30:21;5.23;;;0.60;;
1296;SDS011;641;48.492;9.184;2023-11-21T01:32:47;7.73;;;0.70;;
1296;SDS011;641;48.492;9.184;2023-11-21T01:35:12;8.83;;;0.80;;
1296;SDS011;641;48.492;9.184;2023-11-21T01:37:38;5.67;;;0.40;;
1296;SDS011;641;48.492;9.184;2023-11-21T01:40:04;6.27;;;0.60;;
1296;SDS011;641;48.492;9.184;2023-11-21T01:42:38;6.10;;;1.40;;
1296;SDS011;641;48.492;9.184;2023-11-21T01:45:04;6.23;;;0.53;;
1296;SDS011;641;48.492;9.184;2023-11-21T01:47:31;5.20;;;0.40;;
1296;SDS011;641;48.492;9.184;2023-11-21T01:50:00;5.40;;;0.57;;
1296;SDS011;641;48.492;9.184;2023-11-21T01:52:29;5.10;;;0.40;;
1296;SDS011;641;48.492;9.184;2023-11-21T01:54:55;7.00;;;0.67;;
1296;SDS011;641;48.492;9.184;2023-11-21T01:57:21;5.50;;;0.67;;
1296;SDS011;641;48.492;9.184;2023-11-21T01:59:47;5.40;;;0.50;;
1296;SDS011;641;48.492;9.184;2023-11-21T02:02:14;5.37;;;0.63;;
1296;SDS011;641;48.492;9.184;2023-11-21T02:04:41;6.87;;;0.40;;
1296;SDS011;641;48.492;9.184;2023-11-21T02:07:07;5.20;;;0.50;;
1296;SDS011;641;48.492;9.184;2023-11-21T02:09:32;5.70;;;0.70;;
1296;SDS011;641;48.492;9.184;2023-11-21T02:11:59;5.10;;;0.50;;
1296;SDS011;641;48.492;9.184;2023-11-21T02:14:26;5.40;;;0.57;;
1296;SDS011;641;48.492;9.184;2023-11-21T02:16:53;5.40;;;0.60;;
1296;SDS011;641;48.492;9.184;2023-11-21T02:19:21;5.20;;;0.50;;
1296;SDS011;641;48.492;9.184;2023-11-21T02:21:54;5.47;;;0.40;;
1296;SDS011;641;48.492;9.184;2023-11-21T02:24:28;4.90;;;0.30;;
1296;SDS011;641;48.492;9.184;2023-11-21T02:26:53;5.03;;;0.50;;
1296;SDS011;641;48.492;9.184;2023-11-21T02:29:20;5.10;;;0.63;;
1296;SDS011;641;48.492;9.184;2023-11-21T02:31:53;5.00;;;0.50;;
1296;SDS011;641;48.492;9.184;2023-11-21T02:34:20;5.40;;;0.40;;
1296;SDS011;641;48.492;9.184;2023-11-21T02:36:47;7.20;;;0.70;;
1296;SDS011;641;48.492;9.184;2023-11-21T02:39:16;6.03;;;0.57;;
1296;SDS011;641;48.492;9.184;2023-11-21T02:41:43;6.90;;;0.63;;
1296;SDS011;641;48.492;9.184;2023-11-21T02:44:09;5.80;;;0.50;;
1296;SDS011;641;48.492;9.184;2023-11-21T02:46:35;5.30;;;0.50;;
1296;SDS011;641;48.492;9.184;2023-11-21T02:49:02;5.00;;;0.40;;
1296;SDS011;641;48.492;9.184;2023-11-21T02:51:28;5.43;;;0.53;;
1296;SDS011;641;48.492;9.184;2023-11-21T02:53:54;4.90;;;0.30;;
1296;SDS011;641;48.492;9.184;2023-11-21T02:56:23;5.30;;;0.60;;
1296;SDS011;641;48.492;9.184;2023-11-21T02:58:52;5.17;;;0.40;;
1296;SDS011;641;48.492;9.184;2023-11-21T03:01:20;7.87;;;0.73;;
1296;SDS011;641;48.492;9.184;2023-11-21T03:03:46;6.03;;;0.43;;
1296;SDS011;641;48.492;9.184;2023-11-21T03:06:16;5.60;;;0.60;;
1296;SDS011;641;48.492;9.184;2023-11-21T03:08:42;5.20;;;0.40;;
1296;SDS011;641;48.492;9.184;2023-11-21T03:11:08;5.67;;;0.60;;
1296;SDS011;641;48.492;9.184;2023-11-21T03:13:33;5.90;;;0.50;;
1296;SDS011;641;48.492;9.184;2023-11-21T03:15:59;8.00;;;0.70;;
1296;SDS011;641;48.492;9.184;2023-11-21T03:18:24;4.97;;;0.30;;
1296;SDS011;641;48.492;9.184;2023-11-21T03:20:51;4.93;;;0.33;;
1296;SDS011;641;48.492;9.184;2023-11-21T03:23:18;5.77;;;0.40;;
1296;SDS011;641;48.492;9.184;2023-11-21T03:25:44;5.80;;;0.50;;
1296;SDS011;641;48.492;9.184;2023-11-21T03:28:09;5.00;;;0.40;;
1296;SDS011;641;48.492;9.184;2023-11-21T03:30:35;6.37;;;0.40;;
1296;SDS011;641;48.492;9.184;2023-11-21T03:33:00;4.90;;;0.30;;
1296;SDS011;641;48.492;9.184;2023-11-21T03:35:26;6.23;;;0.30;;
1296;SDS011;641;48.492;9.184;2023-11-21T03:37:52;5.40;;;0.53;;
1296;SDS011;641;48.492;9.184;2023-11-21T03:40:17;5.67;;;0.63;;
1296;SDS011;641;48.492;9.184;2023-11-21T03:42:43;5.20;;;0.40;;
1296;SDS011;641;48.492;9.184;2023-11-21T03:45:08;5.10;;;0.40;;
1296;SDS011;641;48.492;9.184;2023-11-21T03:47:34;5.70;;;0.57;;
1296;SDS011;641;48.492;9.184;2023-11-21T03:50:00;5.63;;;0.40;;
1296;SDS011;641;48.492;9.184;2023-11-21T03:52:26;5.17;;;0.30;;
1296;SDS011;641;48.492;9.184;2023-11-21T03:54:53;5.10;;;0.40;;
1296;SDS011;641;48.492;9.184;2023-11-21T03:57:20;4.90;;;0.30;;
1296;SDS011;641;48.492;9.184;2023-11-21T03:59:46;5.00;;;0.30;;
1296;SDS011;641;48.492;9.184;2023-11-21T04:02:11;5.47;;;0.60;;
1296;SDS011;641;48.492;9.184;2023-11-21T04:04:37;5.10;;;0.40;;
1296;SDS011;641;48.492;9.184;2023-11-21T04:07:02;6.80;;;0.40;;
1296;SDS011;641;48.492;9.184;2023-11-21T04:09:28;5.10;;;0.40;;
1296;SDS011;641;48.492;9.184;2023-11-21T04:11:54;4.90;;;0.30;;
1296;SDS011;641;48.492;9.184;2023-11-21T04:14:20;5.80;;;0.40;;
1296;SDS011;641;48.492;9.184;2023-11-21T04:16:46;5.10;;;0.40;;
1296;SDS011;641;48.492;9.184;2023-11-21T04:19:12;7.03;;;0.40;;
1296;SDS011;641;48.492;9.184;2023-11-21T04:21:40;5.00;;;0.37;;
1296;SDS011;641;48.492;9.184;2023-11-21T04:24:06;5.00;;;0.30;;
1296;SDS011;641;48.492;9.184;2023-11-21T04:26:32;5.50;;;0.50;;
1296;SDS011;641;48.492;9.184;2023-11-21T04:28:58;4.90;;;0.30;;
1296;SDS011;641;48.492;9.184;2023-11-21T04:31:23;5.10;;;0.40;;
1296;SDS011;641;48.492;9.184;2023-11-21T04:33:49;4.93;;;0.30;;
1296;SDS011;641;48.492;9.184;2023-11-21T04:36:14;4.90;;;0.30;;
1296;SDS011;641;48.492;9.184;2023-11-21T04:38:40;4.93;;;0.30;;
1296;SDS011;641;48.492;9.184;2023-11-21T04:41:06;4.90;;;0.30;;
1296;SDS011;641;48.492;9.184;2023-11-21T04:43:31;5.40;;;0.30;;
1296;SDS011;641;48.492;9.184;2023-11-21T04:45:57;5.50;;;0.40;;
1296;SDS011;641;48.492;9.184;2023-11-21T04:48:22;5.03;;;0.27;;
1296;SDS011;641;48.492;9.184;2023-11-21T04:50:48;5.40;;;0.40;;
1296;SDS011;641;48.492;9.184;2023-11-21T04:53:13;5.00;;;0.30;;
1296;SDS011;641;48.492;9.184;2023-11-21T04:55:39;5.00;;;0.30;;
1296;SDS011;641;48.492;9.184;2023-11-21T04:58:05;5.40;;;0.40;;
1296;SDS011;641;48.492;9.184;2023-11-21T05:00:31;5.00;;;0.40;;
1296;SDS011;641;48.492;9.184;2023-11-21T05:02:57;5.27;;;0.40;;
1296;SDS011;641;48.492;9.184;2023-11-21T05:05:22;5.10;;;0.43;;
1296;SDS011;641;48.492;9.184;2023-11-21T05:07:49;5.00;;;0.40;;
1296;SDS011;641;48.492;9.184;2023-11-21T05:10:14;6.20;;;0.90;;
1296;SDS011;641;48.492;9.184;2023-11-21T05:12:41;5.50;;;0.80;;
1296;SDS011;641;48.492;9.184;2023-11-21T05:15:07;5.50;;;0.60;;
1296;SDS011;641;48.492;9.184;2023-11-21T05:17:37;5.60;;;0.70;;
1296;SDS011;641;48.492;9.184;2023-11-21T05:20:15;6.10;;;0.70;;
1296;SDS011;641;48.492;9.184;2023-11-21T05:22:48;6.57;;;0.60;;
1296;SDS011;641;48.492;9.184;2023-11-21T05:25:14;5.50;;;0.97;;
1296;SDS011;641;48.492;9.184;2023-11-21T05:27:40;7.20;;;0.90;;
1296;SDS011;641;48.492;9.184;2023-11-21T05:30:06;5.33;;;0.80;;
1296;SDS011;641;48.492;9.184;2023-11-21T05:32:34;6.73;;;1.00;;
1296;SDS011;641;48.492;9.184;2023-11-21T05:34:59;5.90;;;0.90;;
1296;SDS011;641;48.492;9.184;2023-11-21T05:37:26;7.13;;;1.80;;
1296;SDS011;641;48.492;9.184;2023-11-21T05:39:52;6.17;;;1.37;;
1296;SDS011;641;48.492;9.184;2023-11-21T05:42:18;6.70;;;1.40;;
1296;SDS011;641;48.492;9.184;2023-11-21T05:44:44;7.90;;;1.40;;
1296;SDS011;641;48.492;9.184;2023-11-21T05:47:09;7.70;;;1.60;;
1296;SDS011;641;48.492;9.184;2023-11-21T05:49:35;7.67;;;1.83;;
1296;SDS011;641;48.492;9.184;2023-11-21T05:52:01;8.40;;;2.50;;
1296;SDS011;641;48.492;9.184;2023-11-21T05:54:27;7.40;;;1.83;;
1296;SDS011;641;48.492;9.184;2023-11-21T05:56:53;9.10;;;1.80;;
1296;SDS011;641;48.492;9.184;2023-11-21T05:59:19;8.00;;;2.17;;
1296;SDS011;641;48.492;9.184;2023-11-21T06:01:45;7.20;;;1.40;;
1296;SDS011;641;48.492;9.184;2023-11-21T06:04:11;6.93;;;1.33;;
1296;SDS011;641;48.492;9.184;2023-11-21T06:06:37;8.67;;;1.10;;
1296;SDS011;641;48.492;9.184;2023-11-21T06:09:03;5.80;;;0.80;;
1296;SDS011;641;48.492;9.184;2023-11-21T06:11:30;6.30;;;0.87;;
1296;SDS011;641;48.492;9.184;2023-11-21T06:13:56;6.90;;;1.10;;
1296;SDS011;641;48.492;9.184;2023-11-21T06:16:22;6.23;;;1.20;;
1296;SDS011;641;48.492;9.184;2023-11-21T06:18:49;6.33;;;0.80;;
1296;SDS011;641;48.492;9.184;2023-11-21T06:21:14;5.30;;;0.60;;
1296;SDS011;641;48.492;9.184;2023-11-21T06:23:41;5.33;;;0.73;;
1296;SDS011;641;48.492;9.184;2023-11-21T06:26:07;8.33;;;1.43;;
1296;SDS011;641;48.492;9.184;2023-11-21T06:28:34;7.57;;;1.33;;
1296;SDS011;641;48.492;9.184;2023-11-21T06:31:00;6.70;;;0.63;;
1296;SDS011;641;48.492;9.184;2023-11-21T06:33:33;7.23;;;0.63;;
1296;SDS011;641;48.492;9.184;2023-11-21T06:35:59;5.63;;;0.63;;
1296;SDS011;641;48.492;9.184;2023-11-21T06:38:28;5.50;;;0.70;;
1296;SDS011;641;48.492;9.184;2023-11-21T06:40:55;6.00;;;0.80;;
1296;SDS011;641;48.492;9.184;2023-11-21T06:43:21;6.23;;;0.70;;
1296;SDS011;641;48.492;9.184;2023-11-21T06:45:47;4.97;;;0.60;;
1296;SDS011;641;48.492;9.184;2023-11-21T06:48:12;5.40;;;0.70;;
1296;SDS011;641;48.492;9.184;2023-11-21T06:50:38;5.10;;;0.50;;
1296;SDS011;641;48.492;9.184;2023-11-21T06:53:04;6.90;;;0.60;;
1296;SDS011;641;48.492;9.184;2023-11-21T06:55:31;7.10;;;0.70;;
1296;SDS011;641;48.492;9.184;2023-11-21T06:57:57;5.60;;;0.77;;
1296;SDS011;641;48.492;9.184;2023-11-21T07:00:23;5.70;;;0.77;;
1296;SDS011;641;48.492;9.184;2023-11-21T07:02:49;5.70;;;0.90;;
1296;SDS011;641;48.492;9.184;2023-11-21T07:05:14;6.50;;;0.87;;
1296;SDS011;641;48.492;9.184;2023-11-21T07:07:40;4.93;;;0.57;;
1296;SDS011;641;48.492;9.184;2023-11-21T07:10:06;6.40;;;0.90;;
1296;SDS011;641;48.492;9.184;2023-11-21T07:12:33;9.97;;;1.50;;
1296;SDS011;641;48.492;9.184;2023-11-21T07:14:59;8.23;;;0.87;;
1296;SDS011;641;48.492;9.184;2023-11-21T07:17:24;7.10;;;1.30;;
1296;SDS011;641;48.492;9.184;2023-11-21T07:19:50;5.40;;;0.70;;
1296;SDS011;641;48.492;9.184;2023-11-21T07:22:16;6.20;;;0.80;;
1296;SDS011;641;48.492;9.184;2023-11-21T07:24:49;6.33;;;0.70;;
1296;SDS011;641;48.492;9.184;2023-11-21T07:27:18;5.07;;;0.40;;
1296;SDS011;641;48.492;9.184;2023-11-21T07:29:44;6.57;;;1.00;;
1296;SDS011;641;48.492;9.184;2023-11-21T07:32:09;5.00;;;0.40;;
1296;SDS011;641;48.492;9.184;2023-11-21T07:34:36;5.50;;;0.60;;
1296;SDS011;641;48.492;9.184;2023-11-21T07:37:02;5.10;;;0.40;;
1296;SDS011;641;48.492;9.184;2023-11-21T07:39:28;5.67;;;0.70;;
1296;SDS011;641;48.492;9.184;2023-11-21T07:41:53;5.50;;;0.50;;
1296;SDS011;641;48.492;9.184;2023-11-21T07:44:20;5.30;;;0.70;;
1296;SDS011;641;48.492;9.184;2023-11-21T07:46:45;5.10;;;0.57;;
1296;SDS011;641;48.492;9.184;2023-11-21T07:49:11;9.57;;;0.77;;
1296;SDS011;641;48.492;9.184;2023-11-21T07:51:41;5.13;;;0.40;;
1296;SDS011;641;48.492;9.184;2023-11-21T07:54:07;6.53;;;0.73;;
1296;SDS011;641;48.492;9.184;2023-11-21T07:56:32;5.70;;;0.63;;
1296;SDS011;641;48.492;9.184;2023-11-21T07:58:58;5.20;;;0.50;;
1296;SDS011;641;48.492;9.184;2023-11-21T08:01:23;5.10;;;0.50;;
1296;SDS011;641;48.492;9.184;2023-11-21T08:03:49;5.20;;;0.50;;
1296;SDS011;641;48.492;9.184;2023-11-21T08:06:17;6.90;;;0.70;;
1296;SDS011;641;48.492;9.184;2023-11-21T08:08:42;5.50;;;0.73;;
1296;SDS011;641;48.492;9.184;2023-11-21T08:11:08;5.53;;;0.60;;
1296;SDS011;641;48.492;9.184;2023-11-21T08:13:35;5.83;;;0.40;;
1296;SDS011;641;48.492;9.184;2023-11-21T08:16:00;5.00;;;0.40;;
1296;SDS011;641;48.492;9.184;2023-11-21T08:18:30;6.67;;;0.50;;
1296;SDS011;641;48.492;9.184;2023-11-21T08:20:56;5.13;;;0.40;;
1296;SDS011;641;48.492;9.184;2023-11-21T08:23:22;5.43;;;0.60;;
1296;SDS011;641;48.492;9.184;2023-11-21T08:25:51;7.23;;;0.50;;
1296;SDS011;641;48.492;9.184;2023-11-21T08:28:17;5.93;;;0.80;;
1296;SDS011;641;48.492;9.184;2023-11-21T08:30:43;5.30;;;0.50;;
1296;SDS011;641;48.492;9.184;2023-11-21T08:33:09;5.40;;;0.53;;
1296;SDS011;641;48.492;9.184;2023-11-21T08:35:36;5.67;;;0.50;;
1296;SDS011;641;48.492;9.184;2023-11-21T08:38:02;5.20;;;0.57;;
1296;SDS011;641;48.492;9.184;2023-11-21T08:40:28;5.30;;;0.50;;
1296;SDS011;641;48.492;9.184;2023-11-21T08:42:53;5.40;;;0.50;;
1296;SDS011;641;48.492;9.184;2023-11-21T08:45:19;5.13;;;0.43;;
1296;SDS011;641;48.492;9.184;2023-11-21T08:47:48;6.33;;;0.60;;
1296;SDS011;641;48.492;9.184;2023-11-21T08:50:14;5.17;;;0.43;;
1296;SDS011;641;48.492;9.184;2023-11-21T08:52:40;5.70;;;0.63;;
1296;SDS011;641;48.492;9.184;2023-11-21T08:55:07;5.57;;;0.60;;
1296;SDS011;641;48.492;9.184;2023-11-21T08:57:36;5.23;;;0.50;;
1296;SDS011;641;48.492;9.184;2023-11-21T09:00:03;5.20;;;0.50;;
1296;SDS011;641;48.492;9.184;2023-11-21T09:02:32;5.10;;;0.47;;
1296;SDS011;641;48.492;9.184;2023-11-21T09:04:59;5.20;;;0.50;;
1296;SDS011;641;48.492;9.184;2023-11-21T09:07:28;5.20;;;0.60;;
1296;SDS011;641;48.492;9.184;2023-11-21T09:09:54;5.30;;;0.50;;
1296;SDS011;641;48.492;9.184;2023-11-21T09:12:20;5.50;;;0.50;;
1296;SDS011;641;48.492;9.184;2023-11-21T09:14:46;6.07;;;0.80;;
1296;SDS011;641;48.492;9.184;2023-11-21T09:17:11;8.13;;;0.83;;
1296;SDS011;641;48.492;9.184;2023-11-21T09:19:37;6.00;;;0.87;;
1296;SDS011;641;48.492;9.184;2023-11-21T09:22:03;8.07;;;1.83;;
1296;SDS011;641;48.492;9.184;2023-11-21T09:24:30;7.60;;;1.63;;
1296;SDS011;641;48.492;9.184;2023-11-21T09:26:56;6.93;;;1.70;;
1296;SDS011;641;48.492;9.184;2023-11-21T09:29:21;7.33;;;1.27;;
1296;SDS011;641;48.492;9.184;2023-11-21T09:31:47;6.93;;;1.07;;
1296;SDS011;641;48.492;9.184;2023-11-21T09:34:14;7.43;;;1.10;;
1296;SDS011;641;48.492;9.184;2023-11-21T09:36:40;7.07;;;1.00;;
1296;SDS011;641;48.492;9.184;2023-11-21T09:39:06;6.00;;;0.93;;
1296;SDS011;641;48.492;9.184;2023-11-21T09:41:37;7.20;;;1.07;;
1296;SDS011;641;48.492;9.184;2023-11-21T09:44:09;7.80;;;1.30;;
1296;SDS011;641;48.492;9.184;2023-11-21T09:46:40;5.80;;;0.90;;
1296;SDS011;641;48.492;9.184;2023-11-21T09:49:08;6.83;;;0.77;;
1296;SDS011;641;48.492;9.184;2023-11-21T09:51:39;6.10;;;0.77;;
1296;SDS011;641;48.492;9.184;2023-11-21T09:54:08;7.17;;;1.00;;
1296;SDS011;641;48.492;9.184;2023-11-21T09:56:37;5.30;;;0.80;;
1296;SDS011;641;48.492;9.184;2023-11-21T09:59:03;7.70;;;1.30;;
1296;SDS011;641;48.492;9.184;2023-11-21T10:01:32;5.90;;;1.10;;
1296;SDS011;641;48.492;9.184;2023-11-21T10:03:58;7.27;;;1.20;;
1296;SDS011;641;48.492;9.184;2023-11-21T10:06:24;6.30;;;1.00;;
1296;SDS011;641;48.492;9.184;2023-11-21T10:08:52;5.63;;;0.73;;
1296;SDS011;641;48.492;9.184;2023-11-21T10:11:19;5.77;;;0.63;;
1296;SDS011;641;48.492;9.184;2023-11-21T10:13:47;5.60;;;0.60;;
1296;SDS011;641;48.492;9.184;2023-11-21T10:16:15;5.33;;;0.80;;
1296;SDS011;641;48.492;9.184;2023-11-21T10:18:46;7.30;;;0.70;;
1296;SDS011;641;48.492;9.184;2023-11-21T10:21:16;5.50;;;0.80;;
1296;SDS011;641;48.492;9.184;2023-11-21T10:23:42;5.50;;;0.70;;
1296;SDS011;641;48.492;9.184;2023-11-21T10:26:08;5.10;;;0.50;;
1296;SDS011;641;48.492;9.184;2023-11-21T10:28:41;5.23;;;0.63;;
1296;SDS011;641;48.492;9.184;2023-11-21T10:31:28;5.47;;;0.70;;
1296;SDS011;641;48.492;9.184;2023-11-21T10:34:19;5.87;;;0.60;;
1296;SDS011;641;48.492;9.184;2023-11-21T10:36:45;5.20;;;0.60;;
1296;SDS011;641;48.492;9.184;2023-11-21T10:39:14;6.43;;;0.77;;
1296;SDS011;641;48.492;9.184;2023-11-21T10:41:49;5.17;;;0.53;;
1296;SDS011;641;48.492;9.184;2023-11-21T10:44:18;5.40;;;0.60;;
1296;SDS011;641;48.492;9.184;2023-11-21T10:46:49;5.07;;;0.43;;
1296;SDS011;641;48.492;9.184;2023-11-21T10:49:19;5.70;;;0.60;;
1296;SDS011;641;48.492;9.184;2023-11-21T10:51:45;7.30;;;0.90;;
1296;SDS011;641;48.492;9.184;2023-11-21T10:54:16;6.03;;;0.70;;
1296;SDS011;641;48.492;9.184;2023-11-21T10:56:43;5.60;;;0.80;;
1296;SDS011;641;48.492;9.184;2023-11-21T10:59:10;7.03;;;0.80;;
1296;SDS011;641;48.492;9.184;2023-11-21T11:01:41;5.80;;;0.80;;
1296;SDS011;641;48.492;9.184;2023-11-21T11:04:09;5.90;;;0.80;;
1296;SDS011;641;48.492;9.184;2023-11-21T11:06:44;5.60;;;0.80;;
1296;SDS011;641;48.492;9.184;2023-11-21T11:09:19;5.63;;;0.80;;
1296;SDS011;641;48.492;9.184;2023-11-21T11:11:45;5.97;;;0.97;;
1296;SDS011;641;48.492;9.184;2023-11-21T11:14:11;6.00;;;0.70;;
1296;SDS011;641;48.492;9.184;2023-11-21T11:16:38;5.30;;;0.70;;
1296;SDS011;641;48.492;9.184;2023-11-21T11:19:08;5.43;;;0.70;;
1296;SDS011;641;48.492;9.184;2023-11-21T11:24:58;5.80;;;0.90;;
1296;SDS011;641;48.492;9.184;2023-11-21T11:33:39;5.40;;;0.70;;
1296;SDS011;641;48.492;9.184;2023-11-21T11:36:15;5.30;;;0.63;;
1296;SDS011;641;48.492;9.184;2023-11-21T11:38:50;5.70;;;0.90;;
1296;SDS011;641;48.492;9.184;2023-11-21T11:41:27;5.07;;;0.53;;
1296;SDS011;641;48.492;9.184;2023-11-21T11:43:58;6.07;;;0.80;;
1296;SDS011;641;48.492;9.184;2023-11-21T11:46:44;5.70;;;0.63;;
1296;SDS011;641;48.492;9.184;2023-11-21T11:49:23;7.27;;;0.90;;
1296;SDS011;641;48.492;9.184;2023-11-21T11:54:54;5.10;;;0.57;;
1296;SDS011;641;48.492;9.184;2023-11-21T11:57:23;5.80;;;0.80;;
1296;SDS011;641;48.492;9.184;2023-11-21T12:02:41;7.90;;;0.77;;
1296;SDS011;641;48.492;9.184;2023-11-21T12:05:10;5.90;;;0.90;;
1296;SDS011;641;48.492;9.184;2023-11-21T12:10:26;5.43;;;0.77;;
1296;SDS011;641;48.492;9.184;2023-11-21T12:13:02;5.10;;;0.60;;
1296;SDS011;641;48.492;9.184;2023-11-21T12:15:32;5.30;;;0.60;;
1296;SDS011;641;48.492;9.184;2023-11-21T12:17:58;5.83;;;0.80;;
1296;SDS011;641;48.492;9.184;2023-11-21T12:20:24;5.20;;;0.70;;
1296;SDS011;641;48.492;9.184;2023-11-21T12:22:52;5.50;;;0.60;;
1296;SDS011;641;48.492;9.184;2023-11-21T12:25:25;5.57;;;1.00;;
1296;SDS011;641;48.492;9.184;2023-11-21T12:27:56;5.90;;;0.83;;
1296;SDS011;641;48.492;9.184;2023-11-21T12:30:23;5.80;;;0.90;;
1296;SDS011;641;48.492;9.184;2023-11-21T12:32:53;5.40;;;1.00;;
1296;SDS011;641;48.492;9.184;2023-11-21T12:35:21;5.63;;;0.80;;
1296;SDS011;641;48.492;9.184;2023-11-21T12:37:48;6.27;;;1.00;;
1296;SDS011;641;48.492;9.184;2023-11-21T12:40:15;5.80;;;1.10;;
1296;SDS011;641;48.492;9.184;2023-11-21T12:42:42;5.70;;;1.10;;
1296;SDS011;641;48.492;9.184;2023-11-21T12:47:45;5.67;;;1.10;;
1296;SDS011;641;48.492;9.184;2023-11-21T12:50:12;7.40;;;1.37;;
1296;SDS011;641;48.492;9.184;2023-11-21T12:52:46;5.80;;;0.90;;
1296;SDS011;641;48.492;9.184;2023-11-21T12:55:18;6.77;;;1.33;;
1296;SDS011;641;48.492;9.184;2023-11-21T12:57:48;6.80;;;1.23;;
1296;SDS011;641;48.492;9.184;2023-11-21T13:00:16;6.60;;;1.30;;
1296;SDS011;641;48.492;9.184;2023-11-21T13:02:55;7.43;;;1.50;;
1296;SDS011;641;48.492;9.184;2023-11-21T13:05:26;8.00;;;1.00;;
1296;SDS011;641;48.492;9.184;2023-11-21T13:07:53;7.70;;;1.60;;
1296;SDS011;641;48.492;9.184;2023-11-21T13:10:23;6.73;;;1.60;;
1296;SDS011;641;48.492;9.184;2023-11-21T13:12:57;6.20;;;1.40;;
1296;SDS011;641;48.492;9.184;2023-11-21T13:15:24;7.00;;;1.60;;
1296;SDS011;641;48.492;9.184;2023-11-21T13:17:51;6.20;;;1.50;;
1296;SDS011;641;48.492;9.184;2023-11-21T13:20:18;5.83;;;1.23;;
1296;SDS011;641;48.492;9.184;2023-11-21T13:22:49;6.50;;;1.57;;
1296;SDS011;641;48.492;9.184;2023-11-21T13:25:19;7.60;;;1.90;;
1296;SDS011;641;48.492;9.184;2023-11-21T13:27:45;7.30;;;1.43;;
1296;SDS011;641;48.492;9.184;2023-11-21T13:30:12;7.30;;;1.40;;
1296;SDS011;641;48.492;9.184;2023-11-21T13:32:40;8.57;;;1.40;;
1296;SDS011;641;48.492;9.184;2023-11-21T13:35:11;8.43;;;1.50;;
1296;SDS011;641;48.492;9.184;2023-11-21T13:37:46;7.17;;;1.13;;
1296;SDS011;641;48.492;9.184;2023-11-21T13:40:14;6.20;;;1.60;;
1296;SDS011;641;48.492;9.184;2023-11-21T13:42:44;6.67;;;1.27;;
1296;SDS011;641;48.492;9.184;2023-11-21T13:45:10;5.73;;;1.10;;
1296;SDS011;641;48.492;9.184;2023-11-21T13:47:37;5.80;;;1.57;;
1296;SDS011;641;48.492;9.184;2023-11-21T13:50:05;6.80;;;1.70;;
1296;SDS011;641;48.492;9.184;2023-11-21T13:52:39;8.60;;;1.90;;
1296;SDS011;641;48.492;9.184;2023-11-21T13:55:04;6.53;;;1.80;;
1296;SDS011;641;48.492;9.184;2023-11-21T13:57:36;9.40;;;2.00;;
1296;SDS011;641;48.492;9.184;2023-11-21T14:00:03;6.20;;;1.30;;
1296;SDS011;641;48.492;9.184;2023-11-21T14:02:35;7.33;;;1.77;;
1296;SDS011;641;48.492;9.184;2023-11-21T14:05:07;6.40;;;1.70;;
1296;SDS011;641;48.492;9.184;2023-11-21T14:07:34;6.93;;;1.40;;
1296;SDS011;641;48.492;9.184;2023-11-21T14:10:04;6.60;;;1.60;;
1296;SDS011;641;48.492;9.184;2023-11-21T14:12:33;7.20;;;2.00;;
1296;SDS011;641;48.492;9.184;2023-11-21T14:15:01;8.20;;;2.30;;
1296;SDS011;641;48.492;9.184;2023-11-21T14:17:29;7.77;;;1.40;;
1296;SDS011;641;48.492;9.184;2023-11-21T14:19:55;7.20;;;1.73;;
1296;SDS011;641;48.492;9.184;2023-11-21T14:22:21;9.10;;;1.63;;
1296;SDS011;641;48.492;9.184;2023-11-21T14:24:47;7.70;;;1.50;;
1296;SDS011;641;48.492;9.184;2023-11-21T14:27:15;6.40;;;1.60;;
1296;SDS011;641;48.492;9.184;2023-11-21T14:29:41;6.50;;;1.60;;
1296;SDS011;641;48.492;9.184;2023-11-21T14:32:09;7.43;;;1.70;;
1296;SDS011;641;48.492;9.184;2023-11-21T14:34:38;9.57;;;2.10;;
1296;SDS011;641;48.492;9.184;2023-11-21T14:37:13;8.03;;;1.30;;
1296;SDS011;641;48.492;9.184;2023-11-21T14:39:39;11.20;;;2.33;;
1296;SDS011;641;48.492;9.184;2023-11-21T14:42:09;7.90;;;2.57;;
1296;SDS011;641;48.492;9.184;2023-11-21T14:44:35;7.43;;;2.00;;
1296;SDS011;641;48.492;9.184;2023-11-21T14:47:05;7.70;;;3.20;;
1296;SDS011;641;48.492;9.184;2023-11-21T14:49:37;11.60;;;4.80;;
1296;SDS011;641;48.492;9.184;2023-11-21T14:52:17;11.07;;;5.40;;
1296;SDS011;641;48.492;9.184;2023-11-21T14:55:02;10.40;;;4.20;;
1296;SDS011;641;48.492;9.184;2023-11-21T14:57:46;8.97;;;3.40;;
1296;SDS011;641;48.492;9.184;2023-11-21T15:00:19;9.80;;;3.93;;
1296;SDS011;641;48.492;9.184;2023-11-21T15:03:04;7.97;;;2.87;;
1296;SDS011;641;48.492;9.184;2023-11-21T15:05:30;10.80;;;2.97;;
1296;SDS011;641;48.492;9.184;2023-11-21T15:07:56;8.07;;;2.60;;
1296;SDS011;641;48.492;9.184;2023-11-21T15:10:33;7.33;;;2.70;;
1296;SDS011;641;48.492;9.184;2023-11-21T15:13:11;6.67;;;2.37;;
1296;SDS011;641;48.492;9.184;2023-11-21T15:15:38;8.77;;;2.90;;
1296;SDS011;641;48.492;9.184;2023-11-21T15:18:04;7.57;;;3.07;;
1296;SDS011;641;48.492;9.184;2023-11-21T15:20:31;8.40;;;3.50;;
1296;SDS011;641;48.492;9.184;2023-11-21T15:22:57;9.60;;;3.63;;
1296;SDS011;641;48.492;9.184;2023-11-21T15:25:22;9.93;;;3.83;;
1296;SDS011;641;48.492;9.184;2023-11-21T15:27:48;8.97;;;3.47;;
1296;SDS011;641;48.492;9.184;2023-11-21T15:30:15;10.57;;;3.80;;
1296;SDS011;641;48.492;9.184;2023-11-21T15:32:44;7.40;;;2.60;;
1296;SDS011;641;48.492;9.184;2023-11-21T15:35:10;9.43;;;2.50;;
1296;SDS011;641;48.492;9.184;2023-11-21T15:37:38;8.23;;;2.70;;
1296;SDS011;641;48.492;9.184;2023-11-21T15:40:04;9.53;;;2.33;;
1296;SDS011;641;48.492;9.184;2023-11-21T15:42:31;8.20;;;2.30;;
1296;SDS011;641;48.492;9.184;2023-11-21T15:44:57;7.90;;;2.17;;
1296;SDS011;641;48.492;9.184;2023-11-21T15:47:22;7.47;;;2.43;;
1296;SDS011;641;48.492;9.184;2023-11-21T15:49:49;9.77;;;3.37;;
1296;SDS011;641;48.492;9.184;2023-11-21T15:52:15;7.87;;;2.67;;